Fairbanks, AK

7:57 PM AKDT on September 03, 2015 (GMT -0800)
Fairbanks International | | Change Station
CLOSE
Current Station
Airport
Location: Fairbanks,
Elevation: 433 ft
Nearby Weather Stations

Elev 433 ft 64.80 °N, 147.88 °W | Updated 4 minutes ago

Scattered Clouds
Scattered Clouds
64 °F
Feels Like 64 °F
N
0
Wind Variable Wind from North

Today
High -- | Low -- °F
--% Chance of Precip.
Yesterday
High -- | Low -- °F
Precip. -- in
6:37 AM 9:02 PM
Waning Gibbous, 64% visible
Pressure 29.80 in
Visibility 10.0 miles
Clouds Few 15000 ft
Scattered Clouds 20000 ft
Dew Point 40 °F
Humidity 41%
Rainfall 0.00 in
Snow Depth Not available.
UV 0 out of 12
Pollen Not available.
Air Quality Not available.
Flu Activity Not available.
METAR PAFA 040353Z 00000KT 10SM FEW150 SCT200 18/04 A2978 RMK AO2 SLP090 T01780044
Pressure 29.80 in
Visibility 10.0 miles
Clouds Few 15000 ft
Scattered Clouds 20000 ft
Dew Point 40 °F
Humidity 41%
Rainfall 0.00 in
Snow Depth Not available.
UV 0 out of 12
Pollen Not available.
Air Quality Not available.
Flu Activity Not available.
METAR PAFA 040353Z 00000KT 10SM FEW150 SCT200 18/04 A2978 RMK AO2 SLP090 T01780044

10-Day Weather Forecast

×

Almanac

Astronomy

Sep. 03, 2015 Rise Set
Actual Time
Civil Twilight
Nautical Twilight
Astronomical Twilight
Moon
Length of Visible Light
Length of Day
Tomorrow will be .
, % of the Moon is Illuminated

Today's Extremes

State Highs State Lows

Community

WunderPhotos

Upload Photos

1,852,118 photos uploaded!

WunderBlogs® & News

Nearby

Air Quality

  Air Quality AQ Index Pollutant
Not available.

Snow Depth

Station Depth Elevation

Earthquake Activity

City Distance Mag. Time & Date
Minimum magnitude displayed is 2.5.

Coastal Water Temperatures

Place Temperature

Stations

Nearby Weather Stations

Station Location Temp. Windchill Dew Point Humidity Wind Precip. Elev Updated Type